Decoded Metar for LFRG (DEAUVILLE in FRANCE) (IATA:DOL) | Meteo·Mobile Aviation Weather
aviador You're here:

LFRG Decoded Metar

DEAUVILLE in FRANCE
Report Time2018-10-18 00:00:00
UTC Time2018-10-18 00:19:02
Flight Rules vfr VFR
Wind040° at 05 kt
W.Decomp.*RWY 12: 1.0 kt HW 4.9 kt LCW
W.Rank040° ranks 21
Current wind is below 040° avg. (5.8)
Visibility9999 m
Phenomena:N/A
Clouds:N/A
Expected CloudBase > 800 ft AGL from Temp-Dew spread
CeilingNone
Temp14°C (ISA -0)
Dew Point12°C (88% RH)
AAT12.8°C
QNH1022 hPa
Density Alt358 ft
Elevation479 ft
Report Wrong Elevation
Raw Report
LFRG 180000Z AUTO 04005KT 010V080 CAVOK 14/12 Q1022=

Extra information for LFRG:More info

Metar Taf Metar & Taf Last 4 Metars F.Rules Stats Wind Profile Meteogram Temp Stats Airport Information Weather charts Add Link Nearby VenuesMetar ALERT Operation Metar Decoded Social comments